Morgan Ray — WDF6085 — position and weather

sailwx.info

Track history (hours):
 
Tides and Currents Weather Stations Pressure Air Temp Water Temp Dewpoint Dewpoint Depression Visibility Wind Speed Wind Dir Waves Ship Positions

Morgan Ray

More information available from US FCC via Universal Licensing System and Coast Guard Vessel Documentation Center.

Last reported at 2014-Jul-20 18:30 UTC. Time now 2014-Jul-25 06:50 UTC.
Position N 29°35' W 090°22'.

Length 20 m; draft 2 m.

Type: Tug. MMSI: 367470470.

Date/timePositionNaut miles runAvg speedWind from/ knotsBaromVisibWave heightAir tempDewpointWater temp
2014-Jul-20 18:30N 29°35' W 090°22'6 6.8
2014-Jul-20 17:33N 29°34' W 090°29'8 7.6
2014-Jul-20 16:33N 29°35' W 090°38'5 4.1
2014-Jul-20 15:28N 29°35' W 090°43'0 0.0
2014-Jul-20 14:26N 29°35' W 090°43'3 2.6
2014-Jul-20 13:24N 29°36' W 090°40'2 1.7
2014-Jul-20 12:28N 29°37' W 090°42'14 5.9
2014-Jul-20 10:09N 29°35' W 090°57'5 8.3
2014-Jul-20 09:33N 29°37' W 091°02'1 1.1
2014-Jul-20 08:33N 29°38' W 091°03'0 0.1
2014-Jul-20 07:30N 29°38' W 091°03'2 2.0
2014-Jul-20 06:33N 29°37' W 091°01'3 2.5
2014-Jul-20 05:32N 29°36' W 090°59'3 2.8
2014-Jul-20 04:33N 29°34' W 090°57'3 2.9
2014-Jul-20 03:33N 29°33' W 090°54'3 2.6
2014-Jul-20 02:33N 29°32' W 090°51'3 2.5
2014-Jul-20 01:33N 29°32' W 090°48'8 2.0
2014-Jul-19 21:34N 29°36' W 090°40'3 2.8
2014-Jul-19 20:33N 29°35' W 090°37'2 2.4
2014-Jul-19 19:33N 29°34' W 090°34'3 2.7
2014-Jul-19 18:33N 29°34' W 090°31'3 2.8
2014-Jul-19 17:33N 29°33' W 090°28'3 2.8
2014-Jul-19 16:33N 29°33' W 090°25'  
Track history (hours):
 
Tides and Currents Weather Stations Pressure Air Temp Water Temp Dewpoint Dewpoint Depression Visibility Wind Speed Wind Dir Waves Ship Positions

Morgan Ray

More information available from US FCC via Universal Licensing System and Coast Guard Vessel Documentation Center.

Last reported at 2014-Jul-20 18:30 UTC. Time now 2014-Jul-25 06:50 UTC.
Position N 29°35' W 090°22'.

Length 20 m; draft 2 m.

Type: Tug. MMSI: 367470470.

Date/timePositionNaut miles runAvg speedWind from/ knotsBaromVisibWave heightAir tempDewpointWater temp
2014-Jul-20 18:30N 29°35' W 090°22'6 6.8
2014-Jul-20 17:33N 29°34' W 090°29'8 7.6
2014-Jul-20 16:33N 29°35' W 090°38'5 4.1
2014-Jul-20 15:28N 29°35' W 090°43'0 0.0
2014-Jul-20 14:26N 29°35' W 090°43'3 2.6
2014-Jul-20 13:24N 29°36' W 090°40'2 1.7
2014-Jul-20 12:28N 29°37' W 090°42'14 5.9
2014-Jul-20 10:09N 29°35' W 090°57'5 8.3
2014-Jul-20 09:33N 29°37' W 091°02'1 1.1
2014-Jul-20 08:33N 29°38' W 091°03'0 0.1
2014-Jul-20 07:30N 29°38' W 091°03'2 2.0
2014-Jul-20 06:33N 29°37' W 091°01'3 2.5
2014-Jul-20 05:32N 29°36' W 090°59'3 2.8
2014-Jul-20 04:33N 29°34' W 090°57'3 2.9
2014-Jul-20 03:33N 29°33' W 090°54'3 2.6
2014-Jul-20 02:33N 29°32' W 090°51'3 2.5
2014-Jul-20 01:33N 29°32' W 090°48'8 2.0
2014-Jul-19 21:34N 29°36' W 090°40'3 2.8
2014-Jul-19 20:33N 29°35' W 090°37'2 2.4
2014-Jul-19 19:33N 29°34' W 090°34'3 2.7
2014-Jul-19 18:33N 29°34' W 090°31'3 2.8
2014-Jul-19 17:33N 29°33' W 090°28'3 2.8
2014-Jul-19 16:33N 29°33' W 090°25'  

Dump ship's entire track history